Time;durP1;ratioP1;P1;durP2;ratioP2;P2;SDS_P1;SDS_P2;PMS_P1;PMS_P2;Temp;Humidity;BMP_temperature;BMP_pressure;BME280_temperature;BME280_humidity;BME280_pressure;Samples;Min_cycle;Max_cycle;Signal;HPM_P1;HPM_P2
2021/12/20 00:00:38;;;;;;;2.45;1.38;;;;;;;19.84;47.39;102254.69;4165834;28;20091;-45
2021/12/20 00:02:41;;;;;;;4.18;1.58;;;;;;;19.83;47.52;102264.13;4168161;28;20091;-47
2021/12/20 00:04:45;;;;;;;2.67;1.23;;;;;;;19.80;47.32;102260.75;4164859;28;20095;-43
2021/12/20 00:06:46;;;;;;;5.10;1.40;;;;;;;19.77;47.37;102254.81;4165623;28;20029;-45
2021/12/20 00:08:47;;;;;;;2.85;1.20;;;;;;;19.77;47.29;102244.56;4164944;28;20068;-48
2021/12/20 00:10:49;;;;;;;3.63;1.23;;;;;;;19.78;47.41;102257.34;4165914;28;20538;-45
2021/12/20 00:12:50;;;;;;;3.90;1.33;;;;;;;19.76;47.14;102267.88;4165530;28;20064;-47
2021/12/20 00:14:52;;;;;;;3.88;1.10;;;;;;;19.76;47.21;102278.97;4180301;28;20045;-43
2021/12/20 00:16:53;;;;;;;2.28;1.30;;;;;;;19.67;47.03;102283.19;4164855;28;20087;-46
2021/12/20 00:18:54;;;;;;;3.22;1.30;;;;;;;19.71;47.14;102295.53;4165504;28;21499;-43
2021/12/20 00:20:58;;;;;;;2.78;1.33;;;;;;;19.69;47.00;102299.63;4168076;28;20034;-44
2021/12/20 00:23:00;;;;;;;4.60;0.93;;;;;;;19.70;47.29;102299.41;4165470;28;20037;-47
2021/12/20 00:25:02;;;;;;;2.38;1.00;;;;;;;19.70;47.08;102316.06;4165157;28;20091;-46
2021/12/20 00:27:07;;;;;;;2.95;1.35;;;;;;;19.71;47.02;102317.75;4180218;28;20090;-48
2021/12/20 00:29:08;;;;;;;2.75;1.00;;;;;;;19.71;46.91;102323.31;4164695;28;20045;-45
2021/12/20 00:31:13;;;;;;;2.33;1.30;;;;;;;19.70;47.01;102332.72;4165134;28;20110;-45
2021/12/20 00:33:15;;;;;;;3.05;1.50;;;;;;;19.68;46.60;102345.16;4165132;28;20049;-47
2021/12/20 00:35:24;;;;;;;1.83;0.90;;;;;;;19.69;46.75;102346.81;4163406;28;20033;-44
2021/12/20 00:42:05;;;;;;;2.35;1.30;;;;;;;19.64;47.00;102369.75;4182101;28;20098;-45
2021/12/20 00:44:06;;;;;;;4.20;1.27;;;;;;;19.58;46.71;102345.69;4181492;28;20029;-45
2021/12/20 00:46:11;;;;;;;2.65;1.38;;;;;;;19.64;46.95;102366.13;4181778;28;20079;-45
2021/12/20 00:48:13;;;;;;;2.30;1.10;;;;;;;19.63;46.66;102368.06;4181086;28;20041;-43
2021/12/20 00:50:16;;;;;;;3.03;1.20;;;;;;;19.63;46.41;102370.00;4181196;28;20075;-45
2021/12/20 00:52:17;;;;;;;1.73;1.02;;;;;;;19.61;46.46;102372.16;4180779;28;20049;-46
2021/12/20 00:54:18;;;;;;;3.03;1.10;;;;;;;19.60;46.77;102368.53;4180491;28;20476;-46
2021/12/20 00:56:20;;;;;;;1.45;0.60;;;;;;;19.59;46.79;102369.59;4180723;28;20045;-45
2021/12/20 00:58:21;;;;;;;2.00;1.10;;;;;;;19.53;46.55;102365.00;4181042;28;20094;-44
2021/12/20 01:00:27;;;;;;;3.88;1.00;;;;;;;19.57;46.55;102388.44;4181089;28;20562;-47
2021/12/20 01:02:28;;;;;;;2.75;1.00;;;;;;;19.53;46.49;102387.22;4181220;28;20546;-46
2021/12/20 01:04:30;;;;;;;3.03;1.13;;;;;;;19.54;46.65;102388.91;4181817;28;20430;-46
2021/12/20 01:06:31;;;;;;;2.13;0.82;;;;;;;19.48;46.37;102387.09;4179857;28;20439;-44
2021/12/20 01:08:36;;;;;;;2.20;1.08;;;;;;;19.53;46.49;102401.94;4173791;28;20037;-46
2021/12/20 01:10:43;;;;;;;3.97;1.10;;;;;;;19.53;46.44;102401.09;4165369;28;20365;-46
2021/12/20 01:12:48;;;;;;;2.75;1.02;;;;;;;19.53;46.55;102409.44;4164283;28;20033;-48
2021/12/20 01:14:57;;;;;;;1.27;0.77;;;;;;;19.47;46.32;102413.13;4164729;28;20038;-47
2021/12/20 01:17:05;;;;;;;2.13;0.98;;;;;;;19.52;46.37;102413.28;4165064;28;20045;-46
2021/12/20 01:19:07;;;;;;;2.80;0.80;;;;;;;19.51;46.52;102411.56;4164384;28;20107;-48
2021/12/20 01:21:08;;;;;;;2.53;1.00;;;;;;;19.50;46.25;102418.22;4165089;28;20033;-45
2021/12/20 01:23:11;;;;;;;2.08;0.80;;;;;;;19.49;46.32;102419.31;4164577;28;20477;-47
2021/12/20 01:25:14;;;;;;;1.15;0.93;;;;;;;19.47;46.24;102410.34;4167817;28;20029;-46
2021/12/20 01:27:15;;;;;;;2.42;1.00;;;;;;;19.47;46.01;102402.03;4164536;28;20045;-43
2021/12/20 01:29:19;;;;;;;1.70;1.02;;;;;;;19.47;46.24;102415.91;4179068;28;20041;-44
2021/12/20 01:31:20;;;;;;;2.38;1.08;;;;;;;19.45;46.25;102418.94;4164279;28;20502;-47
2021/12/20 01:33:22;;;;;;;2.33;0.82;;;;;;;19.44;46.01;102413.63;4164245;28;20029;-45
2021/12/20 01:35:26;;;;;;;2.10;1.25;;;;;;;19.42;45.83;102413.84;4164670;28;20029;-47
2021/12/20 01:37:27;;;;;;;1.92;1.08;;;;;;;19.46;45.99;102414.22;4164123;28;20041;-47
2021/12/20 01:39:28;;;;;;;5.22;0.85;;;;;;;19.45;45.93;102409.75;4164592;28;20119;-46
2021/12/20 01:41:30;;;;;;;2.53;0.95;;;;;;;19.42;46.08;102413.84;4164825;28;20045;-48
2021/12/20 01:43:32;;;;;;;2.05;0.98;;;;;;;19.42;45.63;102424.94;4168069;28;20103;-44
2021/12/20 01:45:33;;;;;;;1.92;0.80;;;;;;;19.34;45.78;102416.97;4164027;28;20423;-46
2021/12/20 01:47:42;;;;;;;1.80;0.80;;;;;;;19.41;45.62;102425.19;4162627;28;20485;-46
2021/12/20 01:49:58;;;;;;;1.88;1.15;;;;;;;19.38;45.96;102434.84;4164853;28;20420;-47
2021/12/20 01:52:04;;;;;;;1.27;1.00;;;;;;;19.34;45.90;102418.91;4164180;28;20527;-44
2021/12/20 01:54:05;;;;;;;1.20;0.77;;;;;;;19.38;45.71;102428.41;4163330;28;20065;-42
2021/12/20 01:56:14;;;;;;;1.70;1.00;;;;;;;19.30;45.79;102416.56;4164609;28;20763;-44
2021/12/20 01:58:15;;;;;;;1.38;0.90;;;;;;;19.35;45.59;102431.69;4163391;28;20041;-45
2021/12/20 02:00:21;;;;;;;2.15;1.00;;;;;;;19.33;45.44;102426.34;4175525;28;20460;-47
2021/12/20 02:02:23;;;;;;;1.02;0.88;;;;;;;19.33;45.37;102433.81;4180705;28;20110;-45
2021/12/20 02:04:26;;;;;;;2.88;0.90;;;;;;;19.32;45.36;102443.25;4180110;28;20041;-46
2021/12/20 02:06:35;;;;;;;2.53;1.00;;;;;;;19.29;45.77;102439.03;4181180;28;20411;-45
2021/12/20 02:08:37;;;;;;;2.45;1.00;;;;;;;19.29;45.55;102447.34;4178177;28;20480;-46
2021/12/20 02:10:39;;;;;;;2.03;0.85;;;;;;;19.29;45.54;102455.69;4180694;28;20040;-45
2021/12/20 02:12:41;;;;;;;1.45;0.70;;;;;;;19.21;45.52;102433.78;4180835;28;20485;-46
2021/12/20 02:14:42;;;;;;;2.60;0.90;;;;;;;19.25;45.56;102452.50;4177815;28;20434;-43
2021/12/20 02:16:44;;;;;;;2.13;0.93;;;;;;;19.27;45.86;102449.50;4166110;28;20092;-46
2021/12/20 02:18:46;;;;;;;1.83;1.23;;;;;;;19.27;45.35;102455.03;4163441;28;20509;-45
2021/12/20 02:20:47;;;;;;;1.13;0.82;;;;;;;19.23;45.34;102465.75;4164013;28;20095;-45
2021/12/20 02:22:49;;;;;;;2.33;1.02;;;;;;;19.23;45.53;102465.75;4163976;28;20091;-44
2021/12/20 02:24:50;;;;;;;2.00;0.73;;;;;;;19.23;45.69;102457.44;4163917;28;20041;-46
2021/12/20 02:26:51;;;;;;;1.25;0.80;;;;;;;19.23;45.52;102454.66;4163930;28;20567;-46
2021/12/20 02:28:55;;;;;;;1.77;1.00;;;;;;;19.23;45.38;102454.66;4163466;28;20103;-44
2021/12/20 02:37:41;;;;;;;1.27;0.90;;;;;;;19.15;45.50;102449.44;4164966;28;20116;-48
2021/12/20 02:39:43;;;;;;;1.15;0.80;;;;;;;19.17;45.61;102460.31;4164043;28;20084;-46
2021/12/20 02:41:45;;;;;;;1.63;1.00;;;;;;;19.16;45.14;102453.91;4163953;28;20096;-45
2021/12/20 02:43:54;;;;;;;1.52;0.93;;;;;;;19.15;45.40;102460.56;4163462;28;20054;-46
2021/12/20 02:46:00;;;;;;;1.30;0.82;;;;;;;19.13;45.56;102462.69;4163945;28;20354;-47
2021/12/20 02:48:02;;;;;;;1.90;1.00;;;;;;;19.13;45.36;102465.47;4163206;28;20102;-45
2021/12/20 02:50:10;;;;;;;3.17;1.13;;;;;;;19.08;44.97;102448.66;4166646;28;20029;-46
2021/12/20 02:52:11;;;;;;;1.42;0.88;;;;;;;19.03;45.07;102443.81;4180178;28;20381;-43
2021/12/20 02:54:14;;;;;;;1.02;0.73;;;;;;;19.10;45.29;102454.81;4180021;28;20090;-44
2021/12/20 02:56:15;;;;;;;1.83;1.08;;;;;;;19.08;45.40;102458.94;4179856;28;20037;-45
2021/12/20 02:58:16;;;;;;;1.42;0.73;;;;;;;19.10;45.15;102459.53;4180142;28;20033;-44
2021/12/20 03:00:21;;;;;;;1.20;0.88;;;;;;;19.08;45.10;102457.00;4179971;28;20098;-48
2021/12/20 03:02:23;;;;;;;2.45;1.05;;;;;;;19.09;44.93;102442.03;4180347;28;20361;-46
2021/12/20 03:04:24;;;;;;;2.75;1.05;;;;;;;19.05;45.21;102440.81;4179810;28;20098;-44
2021/12/20 03:06:28;;;;;;;1.13;0.70;;;;;;;19.05;45.09;102458.28;4180014;28;20439;-44
2021/12/20 03:08:29;;;;;;;1.67;0.60;;;;;;;19.04;44.79;102466.84;4179534;28;20045;-44
2021/12/20 03:10:31;;;;;;;1.63;0.93;;;;;;;19.02;44.80;102461.56;4180480;28;20037;-44
2021/12/20 03:12:33;;;;;;;1.13;0.73;;;;;;;19.01;45.05;102465.41;4179789;28;20037;-43
2021/12/20 03:14:41;;;;;;;2.30;0.90;;;;;;;18.95;44.74;102459.91;4179559;28;20426;-48
2021/12/20 03:16:46;;;;;;;1.60;0.90;;;;;;;19.01;44.96;102467.31;4179748;28;20095;-45
2021/12/20 03:18:47;;;;;;;1.37;0.83;;;;;;;18.97;44.65;102468.88;4180044;28;20033;-44
2021/12/20 03:20:48;;;;;;;1.35;1.10;;;;;;;18.99;44.98;102473.09;4176427;28;20298;-47
2021/12/20 03:22:50;;;;;;;1.10;0.70;;;;;;;18.99;44.58;102481.41;4165194;28;20084;-46
2021/12/20 03:24:51;;;;;;;2.22;0.95;;;;;;;18.99;44.64;102477.81;4166337;28;20041;-44
2021/12/20 03:26:53;;;;;;;2.13;0.85;;;;;;;18.98;44.66;102463.09;4170131;28;20029;-45
2021/12/20 03:28:55;;;;;;;1.83;0.98;;;;;;;18.97;44.43;102466.09;4174894;28;20103;-44
2021/12/20 03:30:57;;;;;;;1.40;0.90;;;;;;;18.94;44.39;102475.72;4176918;28;20087;-44
2021/12/20 03:32:58;;;;;;;1.00;0.73;;;;;;;18.93;44.45;102471.25;4180478;28;20032;-47
2021/12/20 03:35:00;;;;;;;1.42;0.70;;;;;;;18.95;44.55;102471.03;4172601;28;20075;-43
2021/12/20 03:37:01;;;;;;;1.80;0.90;;;;;;;18.93;44.54;102464.88;4172690;28;20067;-48
2021/12/20 03:39:05;;;;;;;2.50;1.00;;;;;;;18.95;44.55;102471.03;4178946;28;20487;-44
2021/12/20 03:41:07;;;;;;;1.02;0.80;;;;;;;18.97;44.38;102472.50;4182057;28;20071;-46
2021/12/20 03:43:10;;;;;;;3.15;1.00;;;;;;;18.97;44.59;102469.72;4183150;28;20455;-45
2021/12/20 03:45:14;;;;;;;1.52;0.90;;;;;;;18.98;44.16;102467.78;4182852;28;20541;-44
2021/12/20 03:47:15;;;;;;;1.27;0.70;;;;;;;18.99;44.07;102470.31;4167390;28;20119;-47
2021/12/20 03:49:17;;;;;;;0.88;0.65;;;;;;;19.00;44.05;102474.78;4166041;28;20396;-44
2021/12/20 03:51:18;;;;;;;1.52;0.82;;;;;;;19.03;43.77;102462.41;4164486;28;20104;-45
2021/12/20 03:53:20;;;;;;;0.82;0.70;;;;;;;19.04;43.17;102461.31;4166220;28;20091;-43
2021/12/20 03:55:21;;;;;;;1.33;0.70;;;;;;;19.04;43.53;102464.09;4166371;28;20041;-49
2021/12/20 03:57:23;;;;;;;1.05;0.65;;;;;;;19.06;43.32;102470.25;4169178;28;20037;-44
2021/12/20 03:59:25;;;;;;;1.52;1.02;;;;;;;19.07;42.98;102463.63;4166358;28;20531;-44
2021/12/20 04:01:29;;;;;;;1.10;0.95;;;;;;;19.10;43.12;102468.69;4165296;28;20037;-45
2021/12/20 04:03:33;;;;;;;1.05;0.77;;;;;;;19.10;43.05;102470.63;4166562;28;20029;-43
2021/12/20 04:05:35;;;;;;;1.58;0.80;;;;;;;19.13;43.25;102482.13;4166044;28;20037;-45
2021/12/20 04:07:37;;;;;;;1.08;0.77;;;;;;;19.12;43.25;102472.09;4164432;28;20030;-45
2021/12/20 04:09:39;;;;;;;1.20;0.60;;;;;;;19.15;43.27;102479.97;4166677;28;20034;-45
2021/12/20 04:11:40;;;;;;;0.85;0.70;;;;;;;19.17;43.28;102471.41;4165959;28;20037;-44
2021/12/20 04:13:45;;;;;;;0.80;0.80;;;;;;;19.18;43.31;102473.94;4169394;28;20041;-45
2021/12/20 04:15:46;;;;;;;2.63;0.82;;;;;;;19.16;43.24;102466.94;4165643;28;20441;-43
2021/12/20 04:17:48;;;;;;;2.70;0.85;;;;;;;19.19;42.92;102481.19;4165938;28;20114;-43
2021/12/20 04:19:49;;;;;;;1.48;0.93;;;;;;;19.21;42.89;102490.13;4165962;28;20118;-44
2021/12/20 04:21:51;;;;;;;1.45;0.90;;;;;;;19.21;42.89;102487.38;4166262;28;20084;-43
2021/12/20 04:23:52;;;;;;;1.17;0.73;;;;;;;19.23;43.23;102485.19;4163470;28;20050;-46
2021/12/20 04:25:54;;;;;;;1.23;0.73;;;;;;;19.26;43.11;102493.06;4165488;28;20095;-48
2021/12/20 04:27:55;;;;;;;1.92;0.70;;;;;;;19.27;43.01;102494.75;4165696;28;20045;-47
2021/12/20 04:29:57;;;;;;;1.75;0.90;;;;;;;19.28;43.03;102496.44;4171138;28;20094;-43
2021/12/20 04:31:59;;;;;;;1.80;0.90;;;;;;;19.30;42.71;102499.00;4165777;28;20041;-43
2021/12/20 04:34:00;;;;;;;1.52;0.75;;;;;;;19.27;42.57;102483.66;4165426;28;20045;-47
2021/12/20 04:36:02;;;;;;;1.20;0.80;;;;;;;19.30;42.50;102483.19;4165642;28;20045;-44
2021/12/20 04:38:04;;;;;;;1.05;0.80;;;;;;;19.32;42.48;102482.94;4165259;28;20037;-44
2021/12/20 04:40:10;;;;;;;1.20;0.77;;;;;;;19.33;42.49;102489.34;4165155;28;20041;-47
2021/12/20 04:42:11;;;;;;;1.30;0.80;;;;;;;19.32;42.59;102473.78;4164814;28;20041;-47
2021/12/20 04:44:13;;;;;;;1.17;0.75;;;;;;;19.35;42.53;102473.31;4164930;28;20054;-45
2021/12/20 04:46:14;;;;;;;1.15;0.85;;;;;;;19.34;42.61;102472.47;4165543;28;20049;-46
2021/12/20 04:48:15;;;;;;;1.40;0.82;;;;;;;19.36;42.25;102475.84;4169477;28;20455;-47
2021/12/20 04:50:21;;;;;;;1.15;0.75;;;;;;;19.35;42.44;102467.78;4181454;28;20927;-48
2021/12/20 04:52:24;;;;;;;0.98;0.70;;;;;;;19.37;42.36;102471.16;4181769;28;20442;-44
2021/12/20 04:54:25;;;;;;;1.52;0.80;;;;;;;19.40;42.33;102487.34;4180244;28;20083;-48
2021/12/20 04:56:27;;;;;;;1.13;0.82;;;;;;;19.37;42.47;102480.31;4170259;28;20102;-46
2021/12/20 04:58:28;;;;;;;2.67;0.63;;;;;;;19.40;42.09;102476.25;4181509;28;20033;-46
2021/12/20 05:00:33;;;;;;;1.45;0.82;;;;;;;19.40;42.12;102482.63;4181330;28;20041;-44
2021/12/20 05:02:34;;;;;;;;;;;;;;;19.39;42.02;102480.94;4181741;28;20537;-46
2021/12/20 05:04:36;;;;;;;2.20;0.90;;;;;;;19.46;41.92;102480.84;4178426;28;19959;-45
2021/12/20 05:06:37;;;;;;;1.52;0.90;;;;;;;19.42;41.60;102466.59;4181639;28;20029;-45
2021/12/20 05:08:47;;;;;;;0.98;0.60;;;;;;;19.45;41.89;102473.59;4180928;28;20045;-48
2021/12/20 05:10:48;;;;;;;1.83;0.80;;;;;;;19.45;41.88;102474.44;4180237;28;20514;-45
2021/12/20 05:12:54;;;;;;;1.85;0.65;;;;;;;19.44;41.62;102469.16;4181529;28;20075;-45
2021/12/20 05:14:55;;;;;;;;;;;;;;;19.43;41.78;102467.47;4181652;28;20036;-48
2021/12/20 05:17:01;;;;;;;1.92;0.95;;;;;;;19.49;41.70;102458.19;4181354;28;19962;-47
2021/12/20 05:19:04;;;;;;;1.88;0.77;;;;;;;19.46;41.92;102462.25;4180890;28;20045;-44
2021/12/20 05:21:06;;;;;;;0.98;0.77;;;;;;;19.47;41.47;102471.44;4180904;28;20049;-46
2021/12/20 05:23:08;;;;;;;1.00;0.70;;;;;;;19.43;41.49;102475.78;4176185;28;20105;-43
2021/12/20 05:25:10;;;;;;;1.45;0.90;;;;;;;19.46;41.55;102466.97;4164726;28;20045;-44
2021/12/20 05:27:11;;;;;;;1.15;0.82;;;;;;;19.46;41.56;102461.41;4163880;28;20084;-46
2021/12/20 05:29:13;;;;;;;1.33;0.90;;;;;;;19.41;41.65;102451.00;4164985;28;20022;-45
2021/12/20 05:31:14;;;;;;;0.82;0.60;;;;;;;19.46;41.57;102458.63;4164441;28;20037;-46
2021/12/20 05:33:16;;;;;;;1.40;0.90;;;;;;;19.44;41.54;102469.16;4164759;28;20470;-45
2021/12/20 05:35:22;;;;;;;1.00;0.70;;;;;;;19.43;41.32;102468.28;4164188;28;20111;-46
2021/12/20 05:37:23;;;;;;;1.02;0.70;;;;;;;19.45;41.62;102473.59;4163984;28;20077;-46
2021/12/20 05:39:25;;;;;;;1.10;0.63;;;;;;;19.46;41.72;102472.53;4165083;28;20251;-45
2021/12/20 05:41:27;;;;;;;1.58;0.80;;;;;;;19.46;41.37;102470.59;4165651;28;20038;-48
2021/12/20 05:43:28;;;;;;;0.93;0.60;;;;;;;19.43;41.67;102456.34;4164083;28;20107;-44
2021/12/20 05:45:30;;;;;;;1.90;0.90;;;;;;;19.40;41.70;102460.44;4164592;28;20029;-44
2021/12/20 05:47:31;;;;;;;0.70;0.60;;;;;;;19.46;41.54;102478.06;4171696;28;20052;-49
2021/12/20 05:49:33;;;;;;;1.15;0.70;;;;;;;19.46;41.56;102478.06;4180520;28;20037;-46
2021/12/20 05:51:34;;;;;;;2.38;0.90;;;;;;;19.46;41.55;102475.28;4180213;28;20040;-46
2021/12/20 05:53:36;;;;;;;1.20;0.88;;;;;;;19.47;41.34;102482.53;4180374;28;20041;-49
2021/12/20 05:55:37;;;;;;;1.65;0.88;;;;;;;19.44;41.24;102480.25;4169942;28;20038;-45
2021/12/20 05:57:38;;;;;;;1.25;0.75;;;;;;;19.46;41.67;102497.50;4167524;28;20099;-44
2021/12/20 05:59:40;;;;;;;1.17;0.90;;;;;;;19.46;41.23;102497.50;4180050;28;20118;-44
2021/12/20 06:01:42;;;;;;;1.25;0.88;;;;;;;19.47;41.46;102500.06;4179966;28;20468;-44
2021/12/20 06:03:43;;;;;;;1.00;0.60;;;;;;;19.46;41.59;102497.50;4180029;28;20041;-43
2021/12/20 06:05:44;;;;;;;1.35;0.70;;;;;;;19.46;41.32;102503.06;4180700;28;20116;-44
2021/12/20 06:07:49;;;;;;;1.10;0.65;;;;;;;19.40;41.49;102488.19;4180049;28;20037;-45
2021/12/20 06:09:50;;;;;;;2.03;0.90;;;;;;;19.47;41.40;102515.84;4178866;28;20080;-45
2021/12/20 06:11:54;;;;;;;1.23;0.75;;;;;;;19.48;41.31;102523.97;4180387;28;20102;-45
2021/12/20 06:13:58;;;;;;;1.05;0.80;;;;;;;19.48;41.37;102531.44;4176731;28;20041;-46
2021/12/20 06:16:00;;;;;;;1.27;1.00;;;;;;;19.48;41.33;102512.03;4164036;28;20095;-46
2021/12/20 06:18:01;;;;;;;1.05;0.73;;;;;;;19.44;41.50;102500.53;4173619;28;20053;-45
2021/12/20 06:20:08;;;;;;;2.05;0.90;;;;;;;19.47;41.71;102500.06;4179887;28;20485;-47
2021/12/20 06:22:10;;;;;;;1.40;0.80;;;;;;;19.49;41.65;102497.06;4179054;28;20041;-44
2021/12/20 06:24:11;;;;;;;1.35;0.82;;;;;;;19.50;41.64;102504.28;4178313;28;20492;-43
2021/12/20 06:26:16;;;;;;;1.80;1.08;;;;;;;19.48;41.53;102523.13;4180544;28;20033;-44
2021/12/20 06:28:17;;;;;;;1.33;0.90;;;;;;;19.47;41.77;102518.63;4179952;28;20037;-45
2021/12/20 06:30:18;;;;;;;1.60;0.80;;;;;;;19.48;41.65;102504.53;4179474;28;20415;-43
2021/12/20 06:32:20;;;;;;;1.17;0.80;;;;;;;19.47;41.49;102488.97;4180043;28;20074;-47
2021/12/20 06:34:21;;;;;;;1.98;0.90;;;;;;;19.47;41.25;102493.63;4179599;28;20041;-45
2021/12/20 06:36:25;;;;;;;1.02;0.63;;;;;;;19.47;41.47;102515.84;4180600;28;20033;-48
2021/12/20 06:38:32;;;;;;;0.80;0.70;;;;;;;19.46;41.32;102508.59;4179343;28;20045;-47
2021/12/20 06:40:34;;;;;;;1.65;0.90;;;;;;;19.48;41.61;102512.03;4166983;28;20282;-46
2021/12/20 06:42:37;;;;;;;0.90;0.63;;;;;;;19.47;41.96;102501.97;4179555;28;20199;-47
2021/12/20 06:44:39;;;;;;;2.33;0.80;;;;;;;19.46;41.84;102525.25;4179707;28;20405;-45
2021/12/20 06:46:41;;;;;;;1.20;0.77;;;;;;;19.47;41.89;102538.06;4167465;28;20103;-48
2021/12/20 06:48:45;;;;;;;1.13;0.70;;;;;;;19.46;41.71;102537.22;4168404;28;20119;-46
2021/12/20 06:50:46;;;;;;;0.70;0.50;;;;;;;19.47;41.93;102524.19;4179603;28;20048;-45
2021/12/20 06:52:48;;;;;;;1.00;0.80;;;;;;;19.44;41.70;102528.28;4179580;28;20085;-46
2021/12/20 06:54:52;;;;;;;0.93;0.70;;;;;;;19.44;42.02;102522.72;4180525;28;20083;-45
2021/12/20 06:56:53;;;;;;;1.08;0.80;;;;;;;19.43;42.10;102526.59;4169736;28;20128;-46
2021/12/20 06:58:55;;;;;;;0.88;0.68;;;;;;;19.45;41.96;102529.13;4175911;28;20049;-44
2021/12/20 07:00:56;;;;;;;1.00;0.80;;;;;;;19.43;42.14;102534.09;4183177;28;20106;-50
2021/12/20 07:02:58;;;;;;;0.77;0.60;;;;;;;19.44;42.09;102533.84;4182810;28;20083;-48
2021/12/20 07:04:59;;;;;;;0.82;0.60;;;;;;;19.43;41.97;102537.69;4181660;28;20037;-49
2021/12/20 07:07:00;;;;;;;0.82;0.70;;;;;;;19.43;42.13;102547.97;4182503;28;20415;-45
2021/12/20 07:09:02;;;;;;;1.83;0.70;;;;;;;19.19;42.00;102531.13;4182672;28;20480;-44
2021/12/20 07:11:05;;;;;;;0.70;0.70;;;;;;;19.41;41.85;102573.16;4181483;28;20049;-49
2021/12/20 07:13:08;;;;;;;1.20;0.55;;;;;;;19.40;42.44;102565.91;4166266;28;20049;-48
2021/12/20 07:15:14;;;;;;;1.38;0.77;;;;;;;19.19;42.20;102530.28;4166899;28;20075;-46
2021/12/20 07:17:17;;;;;;;1.45;0.85;;;;;;;19.41;42.19;102569.53;4178251;28;20041;-50
2021/12/20 07:19:18;;;;;;;2.00;0.70;;;;;;;19.32;42.03;102557.91;4183109;28;20528;-48
2021/12/20 07:21:19;;;;;;;1.02;0.80;;;;;;;19.38;42.16;102572.75;4182354;28;20033;-45
2021/12/20 07:23:22;;;;;;;0.90;0.60;;;;;;;19.38;42.13;102568.09;4182912;28;20090;-46
2021/12/20 07:25:24;;;;;;;1.15;0.80;;;;;;;19.31;42.15;102567.31;4181291;28;20110;-47
2021/12/20 07:27:26;;;;;;;1.95;1.27;;;;;;;19.35;42.12;102567.69;4182148;28;20801;-47
2021/12/20 07:29:27;;;;;;;0.85;0.70;;;;;;;19.33;42.34;102575.38;4179863;28;20132;-46
2021/12/20 07:31:29;;;;;;;1.23;0.80;;;;;;;19.33;42.41;102569.84;4181781;28;20450;-45
2021/12/20 07:33:30;;;;;;;1.50;0.73;;;;;;;19.33;42.48;102575.38;4182079;28;20439;-46
2021/12/20 07:35:32;;;;;;;0.70;0.50;;;;;;;19.32;42.19;102577.31;4180733;28;20099;-44
2021/12/20 07:37:33;;;;;;;0.80;0.70;;;;;;;19.30;42.27;102583.13;4181458;28;20107;-44
2021/12/20 07:39:35;;;;;;;0.90;0.70;;;;;;;19.30;42.26;102583.13;4178805;28;20448;-43
2021/12/20 07:41:36;;;;;;;0.88;0.70;;;;;;;19.29;42.33;102573.09;4182525;28;20028;-43
2021/12/20 07:43:38;;;;;;;0.57;0.50;;;;;;;19.29;42.50;102575.88;4182550;28;20029;-47
2021/12/20 07:45:39;;;;;;;1.10;0.70;;;;;;;19.27;42.07;102575.25;4180386;28;20127;-44
2021/12/20 07:47:41;;;;;;;1.77;0.60;;;;;;;19.25;42.35;102580.19;4181487;28;20423;-47
2021/12/20 07:49:42;;;;;;;1.02;0.70;;;;;;;19.25;42.09;102590.44;4182092;28;20045;-44
2021/12/20 07:51:44;;;;;;;1.35;0.98;;;;;;;19.26;42.23;102598.53;4181961;28;20365;-44
2021/12/20 07:53:46;;;;;;;1.48;0.80;;;;;;;19.24;42.44;102586.81;4182181;28;20090;-43
2021/12/20 07:55:47;;;;;;;0.98;0.80;;;;;;;19.24;42.23;102597.91;4182326;28;20488;-45
2021/12/20 07:57:50;;;;;;;0.75;0.60;;;;;;;19.24;42.46;102611.81;4181791;28;20102;-44
2021/12/20 07:59:52;;;;;;;0.88;0.70;;;;;;;19.23;42.24;102610.06;4182294;28;20083;-44
2021/12/20 08:01:56;;;;;;;1.25;0.70;;;;;;;19.22;42.28;102613.09;4179010;28;20103;-48
2021/12/20 08:03:57;;;;;;;1.40;0.90;;;;;;;19.22;42.51;102610.31;4182309;28;20134;-45
2021/12/20 08:05:59;;;;;;;1.17;0.77;;;;;;;19.21;42.05;102606.69;4181821;28;20511;-44
2021/12/20 08:08:00;;;;;;;1.02;0.70;;;;;;;19.20;42.50;102605.00;4174265;28;20098;-47
2021/12/20 08:10:04;;;;;;;1.63;1.45;;;;;;;19.19;42.11;102603.28;4169112;28;20029;-46
2021/12/20 08:12:06;;;;;;;0.70;0.60;;;;;;;19.18;42.39;102606.31;4174045;28;20400;-44
2021/12/20 08:14:08;;;;;;;0.75;0.75;;;;;;;19.18;42.01;102618.25;4165795;28;20046;-46
2021/12/20 08:16:09;;;;;;;1.00;0.60;;;;;;;19.18;42.31;102609.91;4163465;28;20046;-46
2021/12/20 08:18:11;;;;;;;0.85;0.60;;;;;;;19.16;42.31;102614.03;4168643;28;20106;-51
2021/12/20 08:20:12;;;;;;;1.58;0.90;;;;;;;19.14;42.41;102605.91;4171668;28;20032;-45
2021/12/20 08:22:13;;;;;;;1.50;0.88;;;;;;;19.14;42.37;102614.22;4175140;28;20041;-46
2021/12/20 08:24:15;;;;;;;1.42;0.93;;;;;;;19.13;42.42;102612.53;4181985;28;20048;-45
2021/12/20 08:26:20;;;;;;;2.88;0.60;;;;;;;19.13;42.13;102615.31;4165100;28;20566;-48
2021/12/20 08:28:21;;;;;;;1.15;0.70;;;;;;;19.13;41.95;102608.91;4165127;28;20096;-44
2021/12/20 08:30:24;;;;;;;1.67;0.70;;;;;;;19.09;42.40;102602.97;4179980;28;20040;-46
2021/12/20 08:32:26;;;;;;;0.70;0.60;;;;;;;19.11;42.12;102611.09;4165390;28;20076;-45
2021/12/20 08:34:30;;;;;;;1.23;0.70;;;;;;;19.09;42.38;102608.50;4167166;28;20034;-46
2021/12/20 08:36:32;;;;;;;0.60;0.60;;;;;;;19.12;42.26;102612.78;4181748;28;20029;-48
2021/12/20 08:38:33;;;;;;;1.23;0.98;;;;;;;19.11;42.21;102611.94;4181098;28;20095;-46
2021/12/20 08:40:37;;;;;;;0.82;0.70;;;;;;;19.09;42.09;102613.22;4181862;28;20349;-44
2021/12/20 08:42:41;;;;;;;1.13;0.80;;;;;;;19.08;42.29;102612.38;4181777;28;20037;-45
2021/12/20 08:44:42;;;;;;;1.60;0.70;;;;;;;19.07;42.29;102602.34;4179715;28;20041;-45
2021/12/20 08:46:44;;;;;;;2.45;0.73;;;;;;;19.07;42.05;102604.28;4181329;28;20094;-48
2021/12/20 08:48:48;;;;;;;1.85;0.50;;;;;;;19.06;41.84;102603.44;4181133;28;20040;-44
2021/12/20 08:50:49;;;;;;;0.95;0.80;;;;;;;19.06;42.20;102597.91;4181377;28;20079;-44
2021/12/20 08:52:51;;;;;;;0.70;0.57;;;;;;;19.06;42.08;102592.34;4181637;28;20480;-44
2021/12/20 08:54:53;;;;;;;1.08;0.65;;;;;;;19.03;41.94;102592.78;4181913;28;20033;-45
2021/12/20 08:56:55;;;;;;;0.93;0.65;;;;;;;19.02;41.85;102580.00;4181430;28;20045;-44
2021/12/20 08:58:56;;;;;;;1.77;1.00;;;;;;;19.02;41.93;102582.78;4181045;28;20037;-47
2021/12/20 09:00:58;;;;;;;1.02;0.70;;;;;;;19.01;42.03;102573.63;4181492;28;20036;-44
2021/12/20 09:03:01;;;;;;;1.00;0.80;;;;;;;19.01;42.17;102568.06;4177595;28;20091;-50
2021/12/20 09:05:03;;;;;;;1.10;0.60;;;;;;;19.00;42.15;102577.44;4165229;28;20103;-45
2021/12/20 09:07:06;;;;;;;1.00;0.75;;;;;;;18.99;42.09;102580.44;4167334;28;20033;-43
2021/12/20 09:09:08;;;;;;;1.40;0.80;;;;;;;18.98;42.18;102576.00;4180978;28;20041;-43
2021/12/20 09:11:10;;;;;;;0.85;0.65;;;;;;;18.97;41.93;102571.53;4180713;28;20045;-44
2021/12/20 09:13:11;;;;;;;1.08;0.80;;;;;;;18.95;42.18;102557.00;4181331;28;20106;-45
2021/12/20 09:15:16;;;;;;;1.42;0.70;;;;;;;18.95;41.95;102559.78;4181064;28;20118;-44
2021/12/20 09:17:20;;;;;;;1.98;0.88;;;;;;;18.93;42.17;102571.13;4180002;28;20103;-46
2021/12/20 09:19:22;;;;;;;1.63;0.70;;;;;;;18.93;41.81;102567.50;4180329;28;20099;-43
2021/12/20 09:21:23;;;;;;;0.50;0.50;;;;;;;18.91;42.29;102570.47;4178003;28;20053;-45
2021/12/20 09:23:29;;;;;;;1.23;0.63;;;;;;;18.79;41.92;102553.75;4180183;28;20126;-45
2021/12/20 09:25:33;;;;;;;1.30;0.93;;;;;;;18.88;41.88;102562.63;4180525;28;20053;-44
2021/12/20 09:27:35;;;;;;;0.93;0.63;;;;;;;18.88;42.25;102559.88;4180735;28;20033;-43
2021/12/20 09:29:37;;;;;;;0.93;0.70;;;;;;;18.87;41.85;102560.91;4181017;28;20037;-43
2021/12/20 09:31:39;;;;;;;1.25;0.68;;;;;;;18.86;41.95;102559.22;4180467;28;20118;-46
2021/12/20 09:33:41;;;;;;;1.45;0.88;;;;;;;18.84;42.15;102566.09;4180460;28;20033;-44
2021/12/20 09:35:42;;;;;;;0.90;0.55;;;;;;;18.81;41.98;102566.53;4180651;28;20080;-46
2021/12/20 09:37:49;;;;;;;1.10;0.70;;;;;;;18.82;41.97;102576.56;4180751;28;20044;-46
2021/12/20 09:39:54;;;;;;;1.08;0.70;;;;;;;18.80;42.11;102582.34;4180955;28;20106;-43
2021/12/20 09:42:02;;;;;;;0.80;0.60;;;;;;;18.82;42.28;102593.19;4180835;28;20111;-48